Terminal Aerodrome Forecast
Issued by NWS

Home | Current Version | Previous Version | Text Only | Print | Product List | Glossary On
Versions: 1 2 3 4 5 6 7 8 9 10 11 12 13 14 15 16 17 18 19
000
FTUS41 KGYX 251120
TAFPSM
TAF
KPSM 251120Z 2512/2612 VRB04KT P6SM SCT120 BKN150
     FM251500 13004KT P6SM SCT100 BKN200
     FM251800 15010KT P6SM SCT100 BKN200
     FM252200 15009KT P6SM -SHRA SCT050 BKN070 OVC100
     FM260300 VRB03KT 5SM BR SCT080 BKN200=

USA.gov is the U.S. government's official web portal to all federal, state and local government web resources and services.